Time;durP1;ratioP1;P1;durP2;ratioP2;P2;SDS_P1;SDS_P2;PMS_P1;PMS_P2;Temp;Humidity;BMP_temperature;BMP_pressure;BME280_temperature;BME280_humidity;BME280_pressure;Samples;Min_cycle;Max_cycle;Signal;HPM_P1;HPM_P2
2022/05/19 00:02:46;;;;;;;;;2.00;2.00;;;;;17.26;61.79;101907.38;146605;584;46916;-72
2022/05/19 00:05:39;;;;;;;;;1.75;1.00;;;;;17.18;60.58;101933.25;146609;619;46010;-72
2022/05/19 00:08:32;;;;;;;;;1.00;1.00;;;;;17.14;62.12;101933.06;146606;621;46016;-72
2022/05/19 00:11:32;;;;;;;;;1.75;1.00;;;;;17.12;63.92;101946.09;146606;571;47010;-72
2022/05/19 00:14:24;;;;;;;;;0.00;0.00;;;;;17.02;62.95;101947.41;146606;620;46916;-72
2022/05/19 00:17:16;;;;;;;;;3.00;2.00;;;;;16.91;63.18;101939.88;146608;605;46020;-72
2022/05/19 00:20:09;;;;;;;;;1.25;0.00;;;;;16.80;61.01;101936.81;146605;601;46016;-71
2022/05/19 00:23:01;;;;;;;;;0.00;0.00;;;;;16.76;61.61;101922.69;146609;595;47012;-71
2022/05/19 00:25:53;;;;;;;;;1.00;1.00;;;;;16.76;61.65;101950.56;146605;622;46017;-72
2022/05/19 00:28:46;;;;;;;;;3.00;2.00;;;;;16.84;62.63;101981.53;146607;666;46020;-72
2022/05/19 00:31:38;;;;;;;;;0.25;0.25;;;;;16.94;63.28;101974.97;146606;604;46016;-71
2022/05/19 00:34:31;;;;;;;;;3.50;0.75;;;;;16.92;62.55;101976.66;146605;685;46021;-71
2022/05/19 00:37:23;;;;;;;;;1.00;1.00;;;;;16.94;62.91;101988.06;146608;698;46035;-71
2022/05/19 00:40:15;;;;;;;;;1.50;1.50;;;;;16.98;62.23;101990.03;146604;569;46021;-70
2022/05/19 00:43:09;;;;;;;;;0.67;0.00;;;;;17.00;63.19;101996.22;146605;569;46016;-70
2022/05/19 00:46:07;;;;;;;;;1.75;0.25;;;;;16.99;62.79;102009.28;146607;572;46020;-69
2022/05/19 00:49:09;;;;;;;;;3.00;1.00;;;;;16.99;62.59;102004.03;146606;569;46016;-70
2022/05/19 00:52:13;;;;;;;;;2.50;1.00;;;;;16.99;62.67;102018.03;146606;614;46020;-70
2022/05/19 00:55:21;;;;;;;;;2.00;1.00;;;;;16.97;62.59;102032.75;146605;622;46017;-72
2022/05/19 00:58:31;;;;;;;;;2.50;1.50;;;;;16.95;63.52;102034.44;146605;586;46020;-73
2022/05/19 01:01:23;;;;;;;;;1.00;1.00;;;;;16.84;63.85;102019.94;146608;633;46012;-76
2022/05/19 01:04:40;;;;;;;;;3.25;1.50;;;;;16.75;63.64;102029.94;146608;597;46010;-72
2022/05/19 01:07:51;;;;;;;;;1.00;0.00;;;;;16.75;63.87;102030.88;146605;574;46014;-69
2022/05/19 01:10:45;;;;;;;;;2.25;2.00;;;;;16.79;64.73;102024.97;146606;572;46011;-70
2022/05/19 01:13:37;;;;;;;;;1.00;1.00;;;;;16.84;64.09;102033.03;146602;653;46016;-71
2022/05/19 01:16:29;;;;;;;;;3.67;1.33;;;;;16.88;65.06;102036.69;146609;580;46012;-71
2022/05/19 01:19:35;;;;;;;;;2.00;2.00;;;;;16.85;63.49;102030.50;146610;595;46012;-71
2022/05/19 01:22:42;;;;;;;;;1.50;1.00;;;;;16.82;63.17;102051.31;146608;581;45591;-71
2022/05/19 01:26:25;;;;;;;;;1.00;1.00;;;;;16.77;64.02;102060.66;146603;597;46017;-69
2022/05/19 01:29:19;;;;;;;;;1.75;1.75;;;;;16.63;64.14;102052.12;146605;593;46020;-70
2022/05/19 01:32:27;;;;;;;;;3.00;2.00;;;;;16.45;63.26;102048.62;146605;566;46013;-71
2022/05/19 01:35:19;;;;;;;;;1.75;1.75;;;;;16.36;65.52;102053.41;146608;595;46010;-69
2022/05/19 01:38:22;;;;;;;;;3.75;2.00;;;;;16.31;64.91;102049.66;146605;642;47012;-69
2022/05/19 01:41:34;;;;;;;;;2.50;1.50;;;;;16.26;63.96;102051.16;146607;603;46010;-73
2022/05/19 01:45:11;;;;;;;;;0.50;0.50;;;;;16.27;63.87;102061.72;146605;576;46016;-73
2022/05/19 01:48:10;;;;;;;;;2.25;1.25;;;;;15.35;64.48;101899.25;146610;576;46011;-73
2022/05/19 01:51:33;;;;;;;;;0.50;0.50;;;;;16.21;64.84;102068.38;146604;587;46016;-73
2022/05/19 01:54:57;;;;;;;;;3.75;1.50;;;;;16.16;63.72;102071.63;146605;575;46021;-75
2022/05/19 01:58:27;;;;;;;;;5.00;2.00;;;;;15.31;63.09;101918.22;146606;638;46034;-74
2022/05/19 02:01:24;;;;;;;;;4.50;2.25;;;;;16.19;64.89;102072.62;146609;709;46010;-73
2022/05/19 02:04:34;;;;;;;;;1.00;1.00;;;;;16.29;64.56;102077.47;146606;590;46012;-72
2022/05/19 02:07:26;;;;;;;;;2.00;2.00;;;;;16.35;63.81;102083.94;146608;569;46020;-74
2022/05/19 02:10:24;;;;;;;;;2.75;1.00;;;;;16.37;65.06;102086.63;146606;565;46017;-85
2022/05/19 02:13:18;;;;;;;;;1.75;0.50;;;;;16.31;65.21;102086.31;146608;635;46010;-83
2022/05/19 02:16:13;;;;;;;;;3.50;2.50;;;;;16.32;64.92;102083.78;146608;627;46012;-80
2022/05/19 02:19:06;;;;;;;;;1.00;1.00;;;;;16.37;65.47;102079.66;146606;617;47010;-74
2022/05/19 02:21:59;;;;;;;;;2.00;1.75;;;;;16.40;64.41;102078.91;146608;563;46012;-79
2022/05/19 02:25:11;;;;;;;;;3.00;1.50;;;;;16.50;63.22;102093.34;146605;600;47012;-80
2022/05/19 02:28:38;;;;;;;;;5.25;3.25;;;;;16.55;61.79;102092.75;146606;595;46916;-79
2022/05/19 02:31:30;;;;;;;;;2.00;1.00;;;;;16.57;62.33;102101.59;146609;577;47010;-71
2022/05/19 02:34:22;;;;;;;;;3.00;1.00;;;;;16.53;62.53;102109.22;146605;571;46039;-73
2022/05/19 02:37:15;;;;;;;;;1.75;1.50;;;;;16.44;62.17;102103.50;146608;574;46020;-74
2022/05/19 02:40:08;;;;;;;;;3.25;2.00;;;;;16.40;62.93;102097.22;146606;576;46012;-74
2022/05/19 02:43:00;;;;;;;;;1.00;1.00;;;;;16.40;63.53;102090.28;146606;596;46020;-75
2022/05/19 02:45:52;;;;;;;;;3.00;2.00;;;;;16.44;62.32;102098.28;146607;608;46016;-81
2022/05/19 02:48:44;;;;;;;;;2.00;1.50;;;;;16.43;62.63;102101.72;146607;657;46020;-80
2022/05/19 02:51:37;;;;;;;;;1.00;1.00;;;;;16.29;64.18;102111.50;146606;564;47012;-79
2022/05/19 02:54:29;;;;;;;;;2.25;1.00;;;;;16.13;63.74;102121.19;146610;656;46010;-77
2022/05/19 02:57:21;;;;;;;;;4.75;2.00;;;;;16.06;63.46;102110.34;146605;564;46013;-78
2022/05/19 03:00:17;;;;;;;;;4.25;2.00;;;;;15.94;63.76;102090.56;146608;581;46020;-78
2022/05/19 03:03:09;;;;;;;;;2.75;2.00;;;;;16.17;64.45;102120.56;146604;622;46012;-76
2022/05/19 03:06:01;;;;;;;;;4.00;2.50;;;;;16.24;63.60;102127.00;146606;656;46021;-77
2022/05/19 03:08:53;;;;;;;;;4.00;3.00;;;;;16.23;64.60;102113.81;146606;693;46923;-77
2022/05/19 03:11:45;;;;;;;;;4.25;4.00;;;;;16.17;64.74;102098.72;146609;566;46010;-77
2022/05/19 03:14:37;;;;;;;;;2.75;2.75;;;;;16.13;64.13;102120.28;146604;638;46016;-70
2022/05/19 03:17:30;;;;;;;;;3.75;3.75;;;;;16.07;62.90;102125.22;146607;596;46010;-75
2022/05/19 03:20:22;;;;;;;;;3.50;2.75;;;;;15.99;62.64;102137.91;146605;571;46016;-74
2022/05/19 03:23:14;;;;;;;;;2.00;2.00;;;;;15.97;63.53;102129.09;146610;584;46010;-76
2022/05/19 03:26:07;;;;;;;;;1.00;1.00;;;;;16.00;62.82;102144.03;146603;654;46036;-75
2022/05/19 03:28:59;;;;;;;;;2.67;2.00;;;;;15.96;59.93;102137.75;146611;669;45020;-76
2022/05/19 03:31:51;;;;;;;;;2.00;2.00;;;;;15.94;59.89;102142.00;146604;606;46016;-76
2022/05/19 03:34:44;;;;;;;;;0.75;0.25;;;;;15.93;61.34;102148.97;146608;574;46020;-76
2022/05/19 03:37:36;;;;;;;;;1.50;1.25;;;;;15.98;59.54;102154.44;146600;588;47915;-76
2022/05/19 03:40:28;;;;;;;;;2.00;2.00;;;;;15.96;60.46;102140.38;146609;654;46010;-75
2022/05/19 03:43:20;;;;;;;;;1.75;1.00;;;;;15.90;60.40;102145.28;146605;704;46014;-75
2022/05/19 03:46:13;;;;;;;;;1.67;1.00;;;;;15.82;61.00;102147.50;146609;610;46020;-75
2022/05/19 03:49:05;;;;;;;;;1.00;1.00;;;;;15.67;59.86;102152.84;146604;649;46017;-74
2022/05/19 03:51:57;;;;;;;;;1.00;1.00;;;;;15.58;61.75;102147.06;146608;663;46020;-74
2022/05/19 03:54:50;;;;;;;;;3.00;3.00;;;;;15.55;61.17;102143.41;146605;601;46016;-74
2022/05/19 03:57:42;;;;;;;;;3.00;0.00;;;;;15.52;60.94;102154.59;146605;583;46021;-75
2022/05/19 04:00:35;;;;;;;;;0.75;0.75;;;;;15.52;61.53;102157.19;146606;574;46016;-75
2022/05/19 04:03:28;;;;;;;;;2.75;1.50;;;;;15.53;61.91;102159.00;146608;680;46020;-72
2022/05/19 04:06:21;;;;;;;;;1.00;1.00;;;;;15.60;62.72;102166.34;146604;654;46016;-79
2022/05/19 04:09:13;;;;;;;;;3.00;1.25;;;;;15.72;62.87;102173.09;146608;632;45020;-80
2022/05/19 04:12:05;;;;;;;;;3.25;2.00;;;;;15.79;62.12;102177.81;146605;575;47012;-79
2022/05/19 04:14:57;;;;;;;;;2.00;1.00;;;;;15.86;62.77;102186.09;146609;627;46010;-80
2022/05/19 04:17:49;;;;;;;;;1.00;1.00;;;;;15.99;62.48;102179.78;146608;605;47013;-78
2022/05/19 04:20:41;;;;;;;;;2.00;2.00;;;;;15.16;61.08;102015.88;146606;657;46020;-74
2022/05/19 04:23:34;;;;;;;;;1.50;1.50;;;;;16.23;60.25;102176.63;146607;597;46012;-73
2022/05/19 04:26:26;;;;;;;;;3.00;1.50;;;;;16.33;60.53;102181.53;146605;683;46021;-75
2022/05/19 04:29:18;;;;;;;;;3.75;1.00;;;;;16.42;59.64;102186.31;146606;736;45035;-79
2022/05/19 04:32:12;;;;;;;;;2.00;2.00;;;;;16.48;61.10;102184.94;146606;575;46020;-74
2022/05/19 04:35:04;;;;;;;;;2.00;2.00;;;;;16.60;60.24;102195.09;146607;576;46012;-81
2022/05/19 04:38:00;;;;;;;;;2.50;2.00;;;;;16.69;59.43;102198.16;146607;569;46030;-82
2022/05/19 04:40:54;;;;;;;;;2.00;2.00;;;;;16.79;58.75;102191.69;146608;630;46016;-81
2022/05/19 04:43:46;;;;;;;;;3.00;3.00;;;;;16.94;58.97;102196.78;146607;569;47010;-80
2022/05/19 04:46:38;;;;;;;;;4.25;3.50;;;;;17.07;56.63;102193.94;146605;588;46015;-77
2022/05/19 04:49:31;;;;;;;;;2.25;1.00;;;;;17.07;57.57;102193.94;146608;693;46020;-78
2022/05/19 04:52:24;;;;;;;;;5.50;2.25;;;;;17.03;59.13;102199.87;146606;590;46012;-78
2022/05/19 04:55:16;;;;;;;;;2.50;2.00;;;;;17.06;57.81;102198.28;146608;625;46011;-78
2022/05/19 04:58:09;;;;;;;;;1.00;1.00;;;;;17.11;57.40;102198.53;146605;565;46016;-78
2022/05/19 05:01:02;;;;;;;;;2.00;2.00;;;;;17.19;57.80;102199.78;146608;585;47010;-77
2022/05/19 05:03:54;;;;;;;;;2.00;2.00;;;;;17.26;58.38;102193.13;146605;682;46017;-78
2022/05/19 05:06:46;;;;;;;;;1.75;1.00;;;;;17.29;58.73;102194.16;146601;586;47010;-77
2022/05/19 05:09:38;;;;;;;;;2.75;2.00;;;;;17.29;58.85;102195.87;146606;622;46013;-77
2022/05/19 05:12:30;;;;;;;;;2.00;2.00;;;;;17.35;56.99;102209.25;146604;596;46020;-81
2022/05/19 05:15:22;;;;;;;;;3.00;2.00;;;;;17.32;57.91;102201.28;146606;614;46016;-80
2022/05/19 05:18:15;;;;;;;;;1.00;1.00;;;;;17.28;57.44;102204.56;146608;566;46010;-72
2022/05/19 05:21:11;;;;;;;;;2.00;2.00;;;;;17.28;58.61;102201.94;146600;581;47915;-78
2022/05/19 05:24:04;;;;;;;;;2.67;2.00;;;;;17.35;58.24;102206.63;146608;587;46020;-77
2022/05/19 05:26:56;;;;;;;;;3.00;2.25;;;;;17.52;58.07;102197.84;146625;597;46014;-76
2022/05/19 05:29:48;;;;;;;;;1.33;0.00;;;;;17.85;57.11;102201.97;146631;571;45027;-72
2022/05/19 05:32:40;;;;;;;;;1.33;1.00;;;;;18.19;56.31;102197.41;146628;589;45017;-71
2022/05/19 05:35:32;;;;;;;;;1.67;1.00;;;;;18.53;54.55;102190.94;146628;569;46010;-71
2022/05/19 05:38:25;;;;;;;;;1.50;1.00;;;;;18.81;52.67;102197.38;146627;658;45015;-72
2022/05/19 05:41:17;;;;;;;;;0.00;0.00;;;;;18.87;47.97;102202.87;146632;633;45010;-71
2022/05/19 05:44:09;;;;;;;;;4.00;0.00;;;;;18.75;48.27;102205.00;146629;649;45028;-71
2022/05/19 05:47:02;;;;;;;;;0.00;0.00;;;;;18.61;47.87;102213.19;146632;571;44046;-70
2022/05/19 05:49:54;;;;;;;;;1.00;0.67;;;;;18.41;48.28;102214.06;146628;591;46016;-71
2022/05/19 05:52:47;;;;;;;;;0.00;0.00;;;;;18.33;49.70;102219.00;146630;563;45020;-76
2022/05/19 05:55:40;;;;;;;;;1.33;1.33;;;;;18.37;49.11;102209.50;146629;656;46013;-69
2022/05/19 05:58:32;;;;;;;;;1.00;0.00;;;;;18.45;48.14;102224.78;146631;605;45012;-75
2022/05/19 06:01:25;;;;;;;;;2.00;1.00;;;;;18.52;47.96;102225.94;146630;668;45016;-75
2022/05/19 06:04:17;;;;;;;;;1.00;1.00;;;;;18.72;48.65;102225.88;146630;577;46010;-72
2022/05/19 06:07:10;;;;;;;;;0.67;0.00;;;;;18.84;48.88;102231.66;146624;639;47917;-81
2022/05/19 06:10:02;;;;;;;;;0.00;0.00;;;;;18.86;47.48;102240.53;146630;578;45010;-75
2022/05/19 06:12:55;;;;;;;;;1.00;1.00;;;;;18.99;50.56;102237.56;146625;616;45917;-76
2022/05/19 06:15:47;;;;;;;;;1.00;1.00;;;;;19.00;51.00;102173.63;146630;577;45010;-73
2022/05/19 06:18:39;;;;;;;;;0.67;0.00;;;;;19.86;49.79;102232.22;146629;578;45016;-73
2022/05/19 06:21:34;;;;;;;;;3.00;1.00;;;;;20.21;50.46;102228.22;146630;625;45020;-73
2022/05/19 06:24:26;;;;;;;;;2.25;2.25;;;;;20.49;51.24;102226.56;146626;582;45917;-74
2022/05/19 06:27:19;;;;;;;;;3.00;2.00;;;;;20.74;50.61;102226.56;146608;600;46010;-73
2022/05/19 06:30:12;;;;;;;;;2.00;1.67;;;;;20.96;50.62;102225.53;146604;569;46016;-73
2022/05/19 06:33:05;;;;;;;;;2.00;1.00;;;;;21.13;49.34;102225.22;146608;566;46010;-74
2022/05/19 06:35:57;;;;;;;;;8.75;7.75;;;;;21.33;49.11;102226.72;146604;654;46915;-73
2022/05/19 06:38:49;;;;;;;;;5.33;4.33;;;;;21.58;48.45;102224.88;146608;676;46020;-73
2022/05/19 06:44:51;;;;;;;;;3.67;2.67;;;;;21.63;47.23;102229.44;146607;577;46033;-72
2022/05/19 06:47:43;;;;;;;;;4.67;2.00;;;;;21.62;46.96;102217.09;146606;600;46017;-74
2022/05/19 06:50:36;;;;;;;;;2.67;2.00;;;;;21.54;48.06;102212.44;146610;563;46010;-72
2022/05/19 06:53:28;;;;;;;;;3.67;3.00;;;;;21.63;47.96;102232.06;146609;635;46016;-72
2022/05/19 06:56:23;;;;;;;;;3.33;2.67;;;;;20.92;47.81;102083.91;146611;571;46010;-74
2022/05/19 06:59:18;;;;;;;;;2.67;2.67;;;;;21.77;47.12;102235.09;146605;665;46014;-74
2022/05/19 07:02:12;;;;;;;;;5.67;3.67;;;;;21.82;46.68;102232.63;146608;613;46010;-73
2022/05/19 07:05:04;;;;;;;;;1.00;1.00;;;;;21.93;44.77;102236.44;146600;630;47917;-75
2022/05/19 07:07:56;;;;;;;;;0.00;0.00;;;;;22.11;44.07;102241.38;146610;570;46010;-73
2022/05/19 07:10:48;;;;;;;;;2.00;2.00;;;;;22.29;42.79;102235.72;146605;579;46016;-73
2022/05/19 07:13:41;;;;;;;;;1.67;1.67;;;;;22.48;41.15;102242.41;146608;593;46020;-71
2022/05/19 07:16:34;;;;;;;;;2.33;1.33;;;;;22.59;42.74;102233.91;146605;635;47014;-71
2022/05/19 07:22:38;;;;;;;;;1.67;1.00;;;;;22.82;40.40;102241.53;146605;579;46016;-68
2022/05/19 07:25:31;;;;;;;;;1.33;0.67;;;;;22.96;39.74;102234.88;146621;586;45021;-70
2022/05/19 07:28:22;;;;;;;;;0.33;0.33;;;;;23.09;38.45;102238.69;146629;602;45016;-70
2022/05/19 07:31:15;;;;;;;;;1.00;0.00;;;;;23.17;36.19;102242.41;146628;583;46010;-69
2022/05/19 07:34:10;;;;;;;;;0.33;0.33;;;;;23.15;36.33;102244.13;146630;565;45016;-69
2022/05/19 07:37:02;;;;;;;;;0.00;0.00;;;;;23.11;38.34;102238.72;146630;605;46010;-69
2022/05/19 07:39:55;;;;;;;;;0.67;0.67;;;;;23.00;31.19;102235.84;146628;579;45917;-68
2022/05/19 07:42:47;;;;;;;;;0.00;0.00;;;;;22.84;31.94;102239.81;146632;599;45010;-70
2022/05/19 07:45:40;;;;;;;;;0.00;0.00;;;;;22.63;30.89;102245.44;146629;600;45016;-70
2022/05/19 07:48:32;;;;;;;;;0.67;0.67;;;;;22.28;30.58;102234.84;146629;565;45020;-70
2022/05/19 07:51:25;;;;;;;;;0.00;0.00;;;;;21.99;33.53;102246.28;146624;590;46012;-69
2022/05/19 07:54:20;;;;;;;;;1.00;0.00;;;;;21.92;36.15;102238.19;146632;630;45010;-69
2022/05/19 07:57:12;;;;;;;;;0.00;0.00;;;;;21.89;32.52;102248.66;146625;584;45916;-70
2022/05/19 08:00:05;;;;;;;;;0.00;0.00;;;;;21.95;35.57;102240.03;146629;601;45916;-70
2022/05/19 08:02:57;;;;;;;;;0.00;0.00;;;;;22.04;34.31;102235.00;146625;575;46014;-70
2022/05/19 08:05:50;;;;;;;;;1.00;0.00;;;;;22.22;35.24;102236.44;146630;666;45029;-70
2022/05/19 08:08:43;;;;;;;;;0.67;0.67;;;;;22.41;34.74;102238.72;146632;612;45013;-70
2022/05/19 08:11:36;;;;;;;;;0.00;0.00;;;;;22.60;34.47;102229.50;146632;643;44051;-70
2022/05/19 08:17:37;;;;;;;;;1.33;0.33;;;;;22.47;30.01;102237.97;146628;567;45021;-70
2022/05/19 08:20:29;;;;;;;;;2.00;1.33;;;;;22.34;33.94;102234.13;146631;675;45012;-70
2022/05/19 08:23:31;;;;;;;;;0.00;0.00;;;;;22.08;31.69;102241.28;146632;632;45010;-70
2022/05/19 08:26:24;;;;;;;;;0.00;0.00;;;;;22.07;34.48;102232.47;146608;608;46016;-70
2022/05/19 08:29:18;;;;;;;;;1.67;0.67;;;;;22.23;33.03;102233.81;146607;564;46010;-69
2022/05/19 08:32:11;;;;;;;;;1.00;1.00;;;;;22.30;32.92;102226.94;146607;577;46016;-70
2022/05/19 08:35:03;;;;;;;;;0.33;0.33;;;;;22.09;31.07;102238.69;146609;718;46010;-69
2022/05/19 08:37:55;;;;;;;;;0.00;0.00;;;;;21.78;30.59;102230.75;146607;570;47014;-69
2022/05/19 08:40:54;;;;;;;;;1.67;1.00;;;;;21.68;32.75;102242.75;146609;678;46020;-69
2022/05/19 08:44:21;;;;;;;;;0.33;0.33;;;;;21.87;34.83;102231.03;146606;563;46016;-69
2022/05/19 08:47:17;;;;;;;;;1.67;0.67;;;;;22.28;34.86;102229.56;146603;590;46914;-71
2022/05/19 08:50:16;;;;;;;;;0.67;0.67;;;;;22.63;33.36;102226.94;146605;583;46016;-69
2022/05/19 08:53:11;;;;;;;;;1.00;0.00;;;;;22.91;33.06;102228.53;146609;570;46012;-70
2022/05/19 08:56:14;;;;;;;;;0.00;0.00;;;;;23.15;30.56;102237.97;146604;659;48915;-70
2022/05/19 08:59:41;;;;;;;;;0.00;0.00;;;;;23.38;31.02;102226.13;146604;641;46020;-69
2022/05/19 09:02:48;;;;;;;;;3.00;1.00;;;;;23.23;28.58;102225.78;146604;628;46016;-70
2022/05/19 09:06:34;;;;;;;;;0.67;0.33;;;;;21.48;33.21;101957.16;146610;615;46010;-69
2022/05/19 09:09:42;;;;;;;;;0.00;0.00;;;;;22.87;31.03;102220.50;146607;627;46012;-70
2022/05/19 09:12:39;;;;;;;;;0.00;0.00;;;;;22.76;33.23;102210.53;146610;630;46010;-69
2022/05/19 09:15:31;;;;;;;;;1.00;0.00;;;;;22.75;29.23;102210.50;146605;574;47014;-71
2022/05/19 09:18:31;;;;;;;;;0.33;0.33;;;;;22.68;28.72;102214.75;146608;563;46020;-70
2022/05/19 09:21:23;;;;;;;;;0.00;0.00;;;;;22.74;32.62;102204.31;146605;627;46016;-70
2022/05/19 09:24:16;;;;;;;;;0.33;0.00;;;;;22.85;32.79;102207.22;146609;586;46010;-70
2022/05/19 09:27:09;;;;;;;;;1.00;1.00;;;;;22.96;31.37;102200.47;146606;604;46016;-70
2022/05/19 09:30:02;;;;;;;;;0.33;0.00;;;;;23.11;32.48;102201.69;146607;579;46010;-70
2022/05/19 09:32:58;;;;;;;;;0.00;0.00;;;;;23.33;33.86;102198.66;146603;571;47014;-71
2022/05/19 09:36:01;;;;;;;;;1.00;1.00;;;;;23.65;34.25;102201.12;146608;633;46020;-71
2022/05/19 09:39:02;;;;;;;;;0.00;0.00;;;;;23.90;33.37;102197.25;146605;658;46017;-70
2022/05/19 09:41:57;;;;;;;;;0.00;0.00;;;;;24.16;31.72;102200.38;146611;577;46010;-73
2022/05/19 09:44:54;;;;;;;;;0.67;0.67;;;;;24.19;33.70;102203.09;146607;610;46031;-70
2022/05/19 09:47:47;;;;;;;;;1.00;1.00;;;;;24.11;29.62;102197.66;146609;564;46020;-69
2022/05/19 09:50:54;;;;;;;;;0.00;0.00;;;;;23.76;32.05;102196.94;146605;594;46016;-70
2022/05/19 09:54:03;;;;;;;;;1.00;1.00;;;;;23.32;32.89;102196.88;146610;566;47010;-70
2022/05/19 09:56:57;;;;;;;;;2.67;2.00;;;;;22.94;32.96;102196.88;146605;655;46014;-70
2022/05/19 09:59:55;;;;;;;;;1.33;0.33;;;;;22.80;32.51;102185.97;146607;635;46010;-70
2022/05/19 10:02:55;;;;;;;;;0.33;0.33;;;;;22.86;32.96;102193.13;146607;663;46012;-69
2022/05/19 10:05:53;;;;;;;;;1.67;0.00;;;;;23.00;34.62;102178.53;146606;569;46020;-70
2022/05/19 10:08:48;;;;;;;;;0.67;0.67;;;;;23.32;32.46;102169.53;146608;595;46012;-71
2022/05/19 10:11:56;;;;;;;;;0.00;0.00;;;;;23.63;33.55;102171.06;146607;620;46020;-69
2022/05/19 10:14:54;;;;;;;;;2.00;0.67;;;;;23.76;29.75;102159.88;146606;589;46916;-68
2022/05/19 10:18:21;;;;;;;;;0.67;0.67;;;;;23.74;34.40;102156.31;146608;575;46012;-70
2022/05/19 10:22:11;;;;;;;;;1.67;1.33;;;;;23.06;32.67;102029.63;146607;577;46016;-70
2022/05/19 10:25:33;;;;;;;;;0.33;0.00;;;;;23.82;32.15;102148.50;146610;645;46010;-69
2022/05/19 10:33:12;;;;;;;;;1.00;0.33;;;;;22.55;33.10;101996.78;146608;605;46010;-70
2022/05/19 10:36:26;;;;;;;;;0.00;0.00;;;;;23.60;33.22;102155.09;146607;583;46916;-71
2022/05/19 10:39:56;;;;;;;;;1.00;1.00;;;;;23.66;34.82;102152.59;146608;570;46020;-71
2022/05/19 10:43:21;;;;;;;;;0.00;0.00;;;;;23.67;33.12;102139.34;146604;591;47012;-69
2022/05/19 10:46:18;;;;;;;;;1.50;1.50;;;;;23.82;33.58;102140.56;146608;569;46012;-70
2022/05/19 10:49:48;;;;;;;;;1.33;1.33;;;;;23.98;32.86;102129.38;146607;573;46016;-71
2022/05/19 10:53:11;;;;;;;;;0.33;0.00;;;;;24.08;30.25;102120.75;146609;595;46021;-70
2022/05/19 10:56:54;;;;;;;;;1.33;1.33;;;;;24.19;32.81;102128.87;146606;595;46016;-69
2022/05/19 11:00:19;;;;;;;;;0.00;0.00;;;;;24.32;31.59;102130.88;146609;571;46020;-68
2022/05/19 11:03:45;;;;;;;;;1.33;0.33;;;;;23.56;32.95;101984.72;146606;589;46012;-70
2022/05/19 11:07:29;;;;;;;;;0.33;0.33;;;;;23.89;33.38;102008.25;146608;569;46021;-68
2022/05/19 11:10:50;;;;;;;;;0.67;0.00;;;;;24.69;32.83;102120.00;146607;563;46915;-69
2022/05/19 11:14:13;;;;;;;;;1.67;1.00;;;;;24.85;33.49;102124.66;146610;601;46021;-70
2022/05/19 11:18:05;;;;;;;;;1.00;1.00;;;;;22.99;32.11;101809.06;146606;650;46012;-72
2022/05/19 11:21:18;;;;;;;;;1.67;1.33;;;;;24.66;33.12;102119.09;146608;564;46020;-71
2022/05/19 11:24:25;;;;;;;;;0.25;0.25;;;;;24.57;34.11;102115.41;146607;589;46014;-74
2022/05/19 11:27:23;;;;;;;;;0.33;0.33;;;;;23.92;31.89;102032.12;146631;566;45020;-73
2022/05/19 11:30:25;;;;;;;;;1.00;1.00;;;;;24.18;35.22;102109.44;146629;564;45016;-77
2022/05/19 11:33:22;;;;;;;;;1.33;1.33;;;;;24.05;32.74;102117.13;146629;586;45020;-75
2022/05/19 11:36:29;;;;;;;;;2.00;1.00;;;;;24.02;35.30;102112.72;146627;606;45012;-75
2022/05/19 11:39:30;;;;;;;;;2.33;2.33;;;;;24.07;32.41;102113.66;146627;569;45020;-78
2022/05/19 11:43:23;;;;;;;;;3.33;1.33;;;;;24.10;33.22;102103.12;146627;660;45016;-73
2022/05/19 11:46:34;;;;;;;;;2.00;1.33;;;;;24.21;34.98;102108.63;146632;575;45020;-75
2022/05/19 11:56:24;;;;;;;;;1.00;0.00;;;;;23.96;33.06;102105.53;146632;641;45012;-72
2022/05/19 11:59:16;;;;;;;;;1.00;1.00;;;;;23.85;33.21;102096.47;146631;571;45020;-73
2022/05/19 12:02:14;;;;;;;;;1.67;0.33;;;;;23.74;33.54;102106.00;146629;602;46012;-76
2022/05/19 12:05:17;;;;;;;;;1.00;1.00;;;;;23.65;35.62;102088.16;146629;651;45021;-71
2022/05/19 12:08:23;;;;;;;;;1.00;1.00;;;;;23.58;35.73;102096.81;146629;633;46916;-78
2022/05/19 12:11:26;;;;;;;;;1.00;1.00;;;;;23.49;34.43;102096.66;146630;593;45027;-75
2022/05/19 12:14:42;;;;;;;;;3.67;1.00;;;;;23.45;34.34;102087.75;146630;607;45013;-74
2022/05/19 12:17:45;;;;;;;;;0.00;0.00;;;;;21.74;34.61;101809.09;146631;605;45915;-75
2022/05/19 12:21:22;;;;;;;;;3.00;1.33;;;;;22.48;36.13;101930.50;146630;569;45013;-70
2022/05/19 12:24:17;;;;;;;;;1.00;1.00;;;;;23.38;33.72;102079.66;146630;607;45020;-72
2022/05/19 12:27:23;;;;;;;;;0.00;0.00;;;;;23.48;35.14;102081.63;146606;598;46013;-69
2022/05/19 12:33:39;;;;;;;;;2.67;1.67;;;;;23.71;34.16;102082.13;146606;602;46913;-70
2022/05/19 12:36:56;;;;;;;;;1.00;1.00;;;;;23.78;34.62;102073.41;146610;620;46012;-68
2022/05/19 12:39:53;;;;;;;;;1.33;1.33;;;;;23.79;32.04;102069.00;146607;573;46915;-74
2022/05/19 12:42:45;;;;;;;;;1.33;1.33;;;;;23.69;32.09;102060.00;146606;611;46011;-71
2022/05/19 12:45:49;;;;;;;;;0.67;0.00;;;;;23.68;33.43;102055.53;146607;569;46016;-67
2022/05/19 12:48:54;;;;;;;;;0.33;0.33;;;;;23.72;33.58;102052.09;146607;569;46010;-74
2022/05/19 12:52:05;;;;;;;;;2.00;1.00;;;;;23.81;31.28;102054.91;146607;669;46017;-69
2022/05/19 12:55:34;;;;;;;;;0.67;0.67;;;;;22.80;32.08;101887.13;146608;571;46020;-71
2022/05/19 12:59:05;;;;;;;;;1.33;1.33;;;;;23.64;33.71;102051.03;146607;656;46014;-70
2022/05/19 13:02:01;;;;;;;;;0.33;0.33;;;;;23.67;33.38;102059.03;146611;649;46020;-71
2022/05/19 13:05:00;;;;;;;;;0.00;0.00;;;;;23.63;33.22;102062.50;146608;595;46916;-71
2022/05/19 13:08:20;;;;;;;;;0.00;0.00;;;;;23.53;33.83;102058.78;146607;567;46010;-70
2022/05/19 13:11:19;;;;;;;;;1.33;1.33;;;;;23.43;33.80;102048.88;146606;626;46914;-71
2022/05/19 13:14:18;;;;;;;;;0.00;0.00;;;;;23.33;33.91;102050.44;146611;595;45051;-72
2022/05/19 13:17:16;;;;;;;;;2.33;0.67;;;;;23.21;33.24;102052.88;146607;642;46016;-70
2022/05/19 13:20:15;;;;;;;;;0.67;0.67;;;;;23.19;33.07;102049.28;146609;641;46010;-71
2022/05/19 13:23:11;;;;;;;;;0.33;0.33;;;;;23.16;34.88;102051.88;146605;606;47014;-71
2022/05/19 13:26:08;;;;;;;;;0.00;0.00;;;;;23.12;35.44;102044.75;146613;564;46012;-72
2022/05/19 13:32:34;;;;;;;;;1.00;1.00;;;;;23.08;33.37;102042.88;146620;625;45022;-70
2022/05/19 13:35:28;;;;;;;;;0.00;0.00;;;;;23.05;32.78;102047.25;146615;582;47012;-70
2022/05/19 13:38:23;;;;;;;;;0.67;0.67;;;;;22.90;31.53;102049.53;146617;595;47010;-70
2022/05/19 13:41:16;;;;;;;;;0.67;0.67;;;;;22.81;32.15;102041.41;146609;578;46017;-70
2022/05/19 13:44:13;;;;;;;;;1.00;1.00;;;;;22.82;33.11;102053.75;146616;579;46010;-69
2022/05/19 13:47:16;;;;;;;;;1.33;1.33;;;;;22.80;32.65;102055.47;146613;634;46012;-70
2022/05/19 13:50:13;;;;;;;;;0.00;0.00;;;;;22.75;33.33;102059.78;146613;581;46021;-70
2022/05/19 13:53:08;;;;;;;;;1.00;1.00;;;;;22.68;31.75;102052.53;146611;610;46915;-70
2022/05/19 13:56:02;;;;;;;;;2.00;2.00;;;;;22.63;33.07;102048.91;146616;572;47010;-70
2022/05/19 13:58:55;;;;;;;;;0.67;0.67;;;;;22.64;31.54;102050.69;146612;626;46017;-70
2022/05/19 14:01:59;;;;;;;;;1.00;0.00;;;;;22.64;32.44;102055.97;146614;606;46020;-70
2022/05/19 14:04:51;;;;;;;;;1.00;1.00;;;;;22.62;32.40;102055.03;146609;582;47013;-69
2022/05/19 14:07:45;;;;;;;;;2.00;1.00;;;;;22.53;32.63;102046.06;146615;576;46020;-71
2022/05/19 14:10:48;;;;;;;;;0.33;0.00;;;;;22.46;33.34;102046.78;146611;587;46030;-71
2022/05/19 14:13:41;;;;;;;;;1.33;1.33;;;;;22.46;33.23;102051.16;146613;600;46021;-70
2022/05/19 14:16:34;;;;;;;;;0.67;0.67;;;;;22.39;33.05;102039.56;146614;577;46014;-70
2022/05/19 14:19:41;;;;;;;;;1.00;1.00;;;;;22.36;34.42;102050.03;146615;569;45049;-70
2022/05/19 14:22:35;;;;;;;;;1.00;1.00;;;;;22.36;33.11;102043.00;146608;634;47915;-71